sensor_id;sensor_type;location;lat;lon;timestamp;temperature;humidity
9373;DHT22;10838;52.350;9.790;2023-04-24T00:01:26;13.80;97.00
9373;DHT22;10838;52.350;9.790;2023-04-24T00:03:54;13.80;97.00
9373;DHT22;10838;52.350;9.790;2023-04-24T00:06:21;13.80;97.00
9373;DHT22;10838;52.350;9.790;2023-04-24T00:08:50;13.80;97.00
9373;DHT22;10838;52.350;9.790;2023-04-24T00:11:16;13.80;97.00
9373;DHT22;10838;52.350;9.790;2023-04-24T00:13:43;13.80;97.00
9373;DHT22;10838;52.350;9.790;2023-04-24T00:16:09;13.70;97.00
9373;DHT22;10838;52.350;9.790;2023-04-24T00:18:36;13.70;97.00
9373;DHT22;10838;52.350;9.790;2023-04-24T00:21:03;13.70;97.00
9373;DHT22;10838;52.350;9.790;2023-04-24T00:23:30;13.70;97.00
9373;DHT22;10838;52.350;9.790;2023-04-24T00:25:58;13.70;97.00
9373;DHT22;10838;52.350;9.790;2023-04-24T00:28:24;13.60;97.00
9373;DHT22;10838;52.350;9.790;2023-04-24T00:30:51;13.60;97.00
9373;DHT22;10838;52.350;9.790;2023-04-24T00:33:18;13.60;97.00
9373;DHT22;10838;52.350;9.790;2023-04-24T00:35:44;13.60;97.00
9373;DHT22;10838;52.350;9.790;2023-04-24T00:38:11;13.60;97.00
9373;DHT22;10838;52.350;9.790;2023-04-24T00:40:37;13.60;97.00
9373;DHT22;10838;52.350;9.790;2023-04-24T00:43:05;13.50;97.00
9373;DHT22;10838;52.350;9.790;2023-04-24T00:45:32;13.50;97.00
9373;DHT22;10838;52.350;9.790;2023-04-24T00:48:00;13.50;97.00
9373;DHT22;10838;52.350;9.790;2023-04-24T00:50:27;13.50;97.00
9373;DHT22;10838;52.350;9.790;2023-04-24T00:52:54;13.50;97.00
9373;DHT22;10838;52.350;9.790;2023-04-24T00:55:21;13.50;97.00
9373;DHT22;10838;52.350;9.790;2023-04-24T00:57:48;13.40;97.00
9373;DHT22;10838;52.350;9.790;2023-04-24T01:00:17;13.40;97.00
9373;DHT22;10838;52.350;9.790;2023-04-24T01:02:44;13.40;97.00
9373;DHT22;10838;52.350;9.790;2023-04-24T01:05:13;13.40;96.90
9373;DHT22;10838;52.350;9.790;2023-04-24T01:07:41;13.30;96.90
9373;DHT22;10838;52.350;9.790;2023-04-24T01:10:10;13.30;96.90
9373;DHT22;10838;52.350;9.790;2023-04-24T01:12:37;13.30;96.80
9373;DHT22;10838;52.350;9.790;2023-04-24T01:15:04;13.30;96.80
9373;DHT22;10838;52.350;9.790;2023-04-24T01:17:33;13.30;96.80
9373;DHT22;10838;52.350;9.790;2023-04-24T01:20:00;13.20;96.70
9373;DHT22;10838;52.350;9.790;2023-04-24T01:22:32;13.20;96.70
9373;DHT22;10838;52.350;9.790;2023-04-24T01:24:59;13.20;96.60
9373;DHT22;10838;52.350;9.790;2023-04-24T01:27:26;13.20;96.60
9373;DHT22;10838;52.350;9.790;2023-04-24T01:29:52;13.10;96.60
9373;DHT22;10838;52.350;9.790;2023-04-24T01:32:19;13.10;96.60
9373;DHT22;10838;52.350;9.790;2023-04-24T01:34:46;13.10;96.60
9373;DHT22;10838;52.350;9.790;2023-04-24T01:37:13;13.10;96.60
9373;DHT22;10838;52.350;9.790;2023-04-24T01:39:42;13.10;96.60
9373;DHT22;10838;52.350;9.790;2023-04-24T01:42:09;13.10;96.60
9373;DHT22;10838;52.350;9.790;2023-04-24T01:44:35;13.00;96.60
9373;DHT22;10838;52.350;9.790;2023-04-24T01:47:02;13.00;96.60
9373;DHT22;10838;52.350;9.790;2023-04-24T01:49:29;13.00;96.60
9373;DHT22;10838;52.350;9.790;2023-04-24T01:51:56;12.90;96.60
9373;DHT22;10838;52.350;9.790;2023-04-24T01:54:22;12.90;96.60
9373;DHT22;10838;52.350;9.790;2023-04-24T01:56:50;12.80;96.60
9373;DHT22;10838;52.350;9.790;2023-04-24T01:59:17;12.80;96.60
9373;DHT22;10838;52.350;9.790;2023-04-24T02:01:44;12.70;96.70
9373;DHT22;10838;52.350;9.790;2023-04-24T02:04:10;12.70;96.70
9373;DHT22;10838;52.350;9.790;2023-04-24T02:06:37;12.60;96.70
9373;DHT22;10838;52.350;9.790;2023-04-24T02:09:03;12.60;96.70
9373;DHT22;10838;52.350;9.790;2023-04-24T02:11:30;12.50;96.70
9373;DHT22;10838;52.350;9.790;2023-04-24T02:13:58;12.50;96.70
9373;DHT22;10838;52.350;9.790;2023-04-24T02:16:24;12.40;96.70
9373;DHT22;10838;52.350;9.790;2023-04-24T02:18:51;12.30;96.70
9373;DHT22;10838;52.350;9.790;2023-04-24T02:21:18;12.30;96.70
9373;DHT22;10838;52.350;9.790;2023-04-24T02:23:44;12.20;96.70
9373;DHT22;10838;52.350;9.790;2023-04-24T02:26:11;12.20;96.70
9373;DHT22;10838;52.350;9.790;2023-04-24T02:28:37;12.10;96.80
9373;DHT22;10838;52.350;9.790;2023-04-24T02:31:05;12.10;96.80
9373;DHT22;10838;52.350;9.790;2023-04-24T02:33:32;12.10;96.80
9373;DHT22;10838;52.350;9.790;2023-04-24T02:35:58;12.00;96.80
9373;DHT22;10838;52.350;9.790;2023-04-24T02:38:25;12.10;96.80
9373;DHT22;10838;52.350;9.790;2023-04-24T02:40:52;12.00;96.80
9373;DHT22;10838;52.350;9.790;2023-04-24T02:43:18;12.00;96.80
9373;DHT22;10838;52.350;9.790;2023-04-24T02:45:45;12.00;96.80
9373;DHT22;10838;52.350;9.790;2023-04-24T02:48:13;11.90;96.80
9373;DHT22;10838;52.350;9.790;2023-04-24T02:50:40;11.90;96.80
9373;DHT22;10838;52.350;9.790;2023-04-24T02:53:06;11.90;96.90
9373;DHT22;10838;52.350;9.790;2023-04-24T02:55:33;11.80;96.90
9373;DHT22;10838;52.350;9.790;2023-04-24T02:57:59;11.80;96.90
9373;DHT22;10838;52.350;9.790;2023-04-24T03:00:26;11.70;96.90
9373;DHT22;10838;52.350;9.790;2023-04-24T03:02:52;11.70;96.90
9373;DHT22;10838;52.350;9.790;2023-04-24T03:05:21;11.70;96.90
9373;DHT22;10838;52.350;9.790;2023-04-24T03:07:47;11.70;96.90
9373;DHT22;10838;52.350;9.790;2023-04-24T03:10:14;11.70;96.90
9373;DHT22;10838;52.350;9.790;2023-04-24T03:12:40;11.70;96.90
9373;DHT22;10838;52.350;9.790;2023-04-24T03:15:08;11.70;96.90
9373;DHT22;10838;52.350;9.790;2023-04-24T03:17:35;11.70;97.00
9373;DHT22;10838;52.350;9.790;2023-04-24T03:20:02;11.70;97.00
9373;DHT22;10838;52.350;9.790;2023-04-24T03:22:31;11.70;97.00
9373;DHT22;10838;52.350;9.790;2023-04-24T03:24:59;11.70;97.00
9373;DHT22;10838;52.350;9.790;2023-04-24T03:27:25;11.70;97.00
9373;DHT22;10838;52.350;9.790;2023-04-24T03:29:52;11.70;97.00
9373;DHT22;10838;52.350;9.790;2023-04-24T03:32:20;11.70;96.90
9373;DHT22;10838;52.350;9.790;2023-04-24T03:34:47;11.70;96.90
9373;DHT22;10838;52.350;9.790;2023-04-24T03:37:14;11.60;96.90
9373;DHT22;10838;52.350;9.790;2023-04-24T03:39:42;11.60;96.90
9373;DHT22;10838;52.350;9.790;2023-04-24T03:42:09;11.60;96.90
9373;DHT22;10838;52.350;9.790;2023-04-24T03:44:36;11.60;96.90
9373;DHT22;10838;52.350;9.790;2023-04-24T03:47:02;11.50;96.90
9373;DHT22;10838;52.350;9.790;2023-04-24T03:49:29;11.50;96.90
9373;DHT22;10838;52.350;9.790;2023-04-24T03:51:55;11.50;96.90
9373;DHT22;10838;52.350;9.790;2023-04-24T03:54:22;11.40;96.90
9373;DHT22;10838;52.350;9.790;2023-04-24T03:56:50;11.40;96.90
9373;DHT22;10838;52.350;9.790;2023-04-24T03:59:16;11.40;96.90
9373;DHT22;10838;52.350;9.790;2023-04-24T04:01:43;11.30;96.90
9373;DHT22;10838;52.350;9.790;2023-04-24T04:04:11;11.30;96.90
9373;DHT22;10838;52.350;9.790;2023-04-24T04:06:37;11.20;96.90
9373;DHT22;10838;52.350;9.790;2023-04-24T04:09:04;11.20;96.90
9373;DHT22;10838;52.350;9.790;2023-04-24T04:11:30;11.10;96.90
9373;DHT22;10838;52.350;9.790;2023-04-24T04:13:58;11.10;96.90
9373;DHT22;10838;52.350;9.790;2023-04-24T04:16:25;11.00;96.90
9373;DHT22;10838;52.350;9.790;2023-04-24T04:18:51;11.00;97.00
9373;DHT22;10838;52.350;9.790;2023-04-24T04:21:18;11.00;97.00
9373;DHT22;10838;52.350;9.790;2023-04-24T04:23:44;10.90;97.00
9373;DHT22;10838;52.350;9.790;2023-04-24T04:26:11;10.90;97.00
9373;DHT22;10838;52.350;9.790;2023-04-24T04:28:38;10.90;97.00
9373;DHT22;10838;52.350;9.790;2023-04-24T04:31:06;10.80;97.00
9373;DHT22;10838;52.350;9.790;2023-04-24T04:33:34;10.80;97.00
9373;DHT22;10838;52.350;9.790;2023-04-24T04:36:01;10.80;97.00
9373;DHT22;10838;52.350;9.790;2023-04-24T04:38:29;10.80;97.00
9373;DHT22;10838;52.350;9.790;2023-04-24T04:40:56;10.70;97.00
9373;DHT22;10838;52.350;9.790;2023-04-24T04:43:23;10.70;97.00
9373;DHT22;10838;52.350;9.790;2023-04-24T04:45:50;10.70;97.00
9373;DHT22;10838;52.350;9.790;2023-04-24T04:48:18;10.60;97.00
9373;DHT22;10838;52.350;9.790;2023-04-24T04:50:45;10.60;97.00
9373;DHT22;10838;52.350;9.790;2023-04-24T04:53:11;10.60;97.00
9373;DHT22;10838;52.350;9.790;2023-04-24T04:55:38;10.50;97.00
9373;DHT22;10838;52.350;9.790;2023-04-24T04:58:05;10.50;97.10
9373;DHT22;10838;52.350;9.790;2023-04-24T05:00:31;10.50;97.10
9373;DHT22;10838;52.350;9.790;2023-04-24T05:03:01;10.50;97.10
9373;DHT22;10838;52.350;9.790;2023-04-24T05:05:28;10.50;97.10
9373;DHT22;10838;52.350;9.790;2023-04-24T05:07:55;10.50;97.10
9373;DHT22;10838;52.350;9.790;2023-04-24T05:10:22;10.50;97.20
9373;DHT22;10838;52.350;9.790;2023-04-24T05:12:48;10.50;97.20
9373;DHT22;10838;52.350;9.790;2023-04-24T05:15:15;10.50;97.20
9373;DHT22;10838;52.350;9.790;2023-04-24T05:17:42;10.50;97.30
9373;DHT22;10838;52.350;9.790;2023-04-24T05:20:09;10.50;97.30
9373;DHT22;10838;52.350;9.790;2023-04-24T05:22:37;10.50;97.30
9373;DHT22;10838;52.350;9.790;2023-04-24T05:25:04;10.50;97.30
9373;DHT22;10838;52.350;9.790;2023-04-24T05:27:31;10.50;97.40
9373;DHT22;10838;52.350;9.790;2023-04-24T05:29:57;10.60;97.50
9373;DHT22;10838;52.350;9.790;2023-04-24T05:32:24;10.60;97.50
9373;DHT22;10838;52.350;9.790;2023-04-24T05:34:52;10.60;97.60
9373;DHT22;10838;52.350;9.790;2023-04-24T05:37:18;10.70;97.60
9373;DHT22;10838;52.350;9.790;2023-04-24T05:39:47;10.80;97.60
9373;DHT22;10838;52.350;9.790;2023-04-24T05:42:13;10.80;97.70
9373;DHT22;10838;52.350;9.790;2023-04-24T05:44:40;10.90;97.70
9373;DHT22;10838;52.350;9.790;2023-04-24T05:47:06;11.00;97.70
9373;DHT22;10838;52.350;9.790;2023-04-24T05:49:33;11.00;97.70
9373;DHT22;10838;52.350;9.790;2023-04-24T05:51:59;11.10;97.70
9373;DHT22;10838;52.350;9.790;2023-04-24T05:54:26;11.10;97.70
9373;DHT22;10838;52.350;9.790;2023-04-24T05:56:54;11.20;97.70
9373;DHT22;10838;52.350;9.790;2023-04-24T05:59:21;11.20;97.70
9373;DHT22;10838;52.350;9.790;2023-04-24T06:01:48;11.30;97.70
9373;DHT22;10838;52.350;9.790;2023-04-24T06:04:14;11.30;97.70
9373;DHT22;10838;52.350;9.790;2023-04-24T06:06:41;11.40;97.60
9373;DHT22;10838;52.350;9.790;2023-04-24T06:09:07;11.40;97.60
9373;DHT22;10838;52.350;9.790;2023-04-24T06:11:34;11.50;97.50
9373;DHT22;10838;52.350;9.790;2023-04-24T06:14:02;11.50;97.50
9373;DHT22;10838;52.350;9.790;2023-04-24T06:16:29;11.60;97.30
9373;DHT22;10838;52.350;9.790;2023-04-24T06:18:56;11.60;97.20
9373;DHT22;10838;52.350;9.790;2023-04-24T06:21:23;11.60;97.20
9373;DHT22;10838;52.350;9.790;2023-04-24T06:23:51;11.60;97.10
9373;DHT22;10838;52.350;9.790;2023-04-24T06:26:17;11.60;97.00
9373;DHT22;10838;52.350;9.790;2023-04-24T06:28:44;11.70;97.00
9373;DHT22;10838;52.350;9.790;2023-04-24T06:31:12;11.70;97.00
9373;DHT22;10838;52.350;9.790;2023-04-24T06:33:38;11.70;97.00
9373;DHT22;10838;52.350;9.790;2023-04-24T06:36:05;11.70;96.90
9373;DHT22;10838;52.350;9.790;2023-04-24T06:38:32;11.70;96.90
9373;DHT22;10838;52.350;9.790;2023-04-24T06:40:59;11.70;96.90
9373;DHT22;10838;52.350;9.790;2023-04-24T06:43:26;11.80;96.90
9373;DHT22;10838;52.350;9.790;2023-04-24T06:45:52;11.80;96.90
9373;DHT22;10838;52.350;9.790;2023-04-24T06:48:20;11.80;96.90
9373;DHT22;10838;52.350;9.790;2023-04-24T06:50:46;11.90;96.90
9373;DHT22;10838;52.350;9.790;2023-04-24T06:53:13;11.90;97.00
9373;DHT22;10838;52.350;9.790;2023-04-24T06:55:40;11.90;96.90
9373;DHT22;10838;52.350;9.790;2023-04-24T06:58:07;12.00;96.90
9373;DHT22;10838;52.350;9.790;2023-04-24T07:00:33;12.00;96.80
9373;DHT22;10838;52.350;9.790;2023-04-24T07:03:00;12.00;96.70
9373;DHT22;10838;52.350;9.790;2023-04-24T07:05:29;12.10;96.70
9373;DHT22;10838;52.350;9.790;2023-04-24T07:07:55;12.10;96.70
9373;DHT22;10838;52.350;9.790;2023-04-24T07:10:23;12.10;96.70
9373;DHT22;10838;52.350;9.790;2023-04-24T07:12:52;12.20;96.60
9373;DHT22;10838;52.350;9.790;2023-04-24T07:15:19;12.20;96.50
9373;DHT22;10838;52.350;9.790;2023-04-24T07:17:46;12.20;96.50
9373;DHT22;10838;52.350;9.790;2023-04-24T07:20:12;12.20;96.40
9373;DHT22;10838;52.350;9.790;2023-04-24T07:22:42;12.20;96.40
9373;DHT22;10838;52.350;9.790;2023-04-24T07:25:09;12.20;96.40
9373;DHT22;10838;52.350;9.790;2023-04-24T07:27:36;12.40;96.40
9373;DHT22;10838;52.350;9.790;2023-04-24T07:30:03;12.60;96.30
9373;DHT22;10838;52.350;9.790;2023-04-24T07:32:30;12.80;96.30
9373;DHT22;10838;52.350;9.790;2023-04-24T07:34:57;13.10;96.30
9373;DHT22;10838;52.350;9.790;2023-04-24T07:37:23;13.40;96.10
9373;DHT22;10838;52.350;9.790;2023-04-24T07:39:51;13.70;96.10
9373;DHT22;10838;52.350;9.790;2023-04-24T07:42:18;14.00;96.10
9373;DHT22;10838;52.350;9.790;2023-04-24T07:44:44;14.30;96.10
9373;DHT22;10838;52.350;9.790;2023-04-24T07:47:13;14.50;95.90
9373;DHT22;10838;52.350;9.790;2023-04-24T07:49:41;14.70;95.50
9373;DHT22;10838;52.350;9.790;2023-04-24T07:52:07;14.80;95.30
9373;DHT22;10838;52.350;9.790;2023-04-24T07:54:34;14.90;95.30
9373;DHT22;10838;52.350;9.790;2023-04-24T07:57:03;15.00;95.30
9373;DHT22;10838;52.350;9.790;2023-04-24T07:59:32;15.00;95.20
9373;DHT22;10838;52.350;9.790;2023-04-24T08:01:58;15.00;95.20
9373;DHT22;10838;52.350;9.790;2023-04-24T08:04:26;14.90;95.20
9373;DHT22;10838;52.350;9.790;2023-04-24T08:06:53;14.80;95.20
9373;DHT22;10838;52.350;9.790;2023-04-24T08:09:19;14.70;95.20
9373;DHT22;10838;52.350;9.790;2023-04-24T08:11:46;14.70;95.30
9373;DHT22;10838;52.350;9.790;2023-04-24T08:14:14;14.70;95.40
9373;DHT22;10838;52.350;9.790;2023-04-24T08:16:40;14.60;95.40
9373;DHT22;10838;52.350;9.790;2023-04-24T08:19:08;14.70;95.40
9373;DHT22;10838;52.350;9.790;2023-04-24T08:21:34;14.70;95.40
9373;DHT22;10838;52.350;9.790;2023-04-24T08:24:01;14.70;95.30
9373;DHT22;10838;52.350;9.790;2023-04-24T08:26:30;14.70;95.30
9373;DHT22;10838;52.350;9.790;2023-04-24T08:28:57;14.70;95.20
9373;DHT22;10838;52.350;9.790;2023-04-24T08:31:25;14.70;95.10
9373;DHT22;10838;52.350;9.790;2023-04-24T08:33:52;14.60;95.00
9373;DHT22;10838;52.350;9.790;2023-04-24T08:36:18;14.60;94.90
9373;DHT22;10838;52.350;9.790;2023-04-24T08:38:45;14.60;95.00
9373;DHT22;10838;52.350;9.790;2023-04-24T08:41:14;14.60;95.00
9373;DHT22;10838;52.350;9.790;2023-04-24T08:43:41;14.70;95.00
9373;DHT22;10838;52.350;9.790;2023-04-24T08:46:08;14.80;94.90
9373;DHT22;10838;52.350;9.790;2023-04-24T08:48:38;15.00;95.00
9373;DHT22;10838;52.350;9.790;2023-04-24T08:51:07;15.10;94.90
9373;DHT22;10838;52.350;9.790;2023-04-24T08:53:35;15.20;94.90
9373;DHT22;10838;52.350;9.790;2023-04-24T08:56:02;15.40;94.70
9373;DHT22;10838;52.350;9.790;2023-04-24T08:58:29;15.50;94.60
9373;DHT22;10838;52.350;9.790;2023-04-24T09:00:56;15.60;94.60
9373;DHT22;10838;52.350;9.790;2023-04-24T09:03:24;15.60;94.60
9373;DHT22;10838;52.350;9.790;2023-04-24T09:05:52;15.60;94.50
9373;DHT22;10838;52.350;9.790;2023-04-24T09:08:24;15.60;94.50
9373;DHT22;10838;52.350;9.790;2023-04-24T09:10:50;15.60;94.40
9373;DHT22;10838;52.350;9.790;2023-04-24T09:13:18;15.60;94.30
9373;DHT22;10838;52.350;9.790;2023-04-24T09:15:45;15.60;94.30
9373;DHT22;10838;52.350;9.790;2023-04-24T09:18:12;15.60;94.10
9373;DHT22;10838;52.350;9.790;2023-04-24T09:20:58;15.70;94.10
9373;DHT22;10838;52.350;9.790;2023-04-24T09:23:26;15.80;94.00
9373;DHT22;10838;52.350;9.790;2023-04-24T09:25:54;15.90;94.10
9373;DHT22;10838;52.350;9.790;2023-04-24T09:28:25;16.00;93.80
9373;DHT22;10838;52.350;9.790;2023-04-24T09:31:02;16.00;93.80
9373;DHT22;10838;52.350;9.790;2023-04-24T09:33:29;16.00;93.90
9373;DHT22;10838;52.350;9.790;2023-04-24T09:35:55;16.00;93.90
9373;DHT22;10838;52.350;9.790;2023-04-24T09:38:35;16.00;93.90
9373;DHT22;10838;52.350;9.790;2023-04-24T09:41:04;15.90;93.80
9373;DHT22;10838;52.350;9.790;2023-04-24T09:43:31;15.90;93.90
9373;DHT22;10838;52.350;9.790;2023-04-24T09:45:58;15.80;93.90
9373;DHT22;10838;52.350;9.790;2023-04-24T09:48:33;15.90;94.10
9373;DHT22;10838;52.350;9.790;2023-04-24T09:51:00;15.90;94.00
9373;DHT22;10838;52.350;9.790;2023-04-24T09:53:28;15.90;94.10
9373;DHT22;10838;52.350;9.790;2023-04-24T09:56:02;15.90;94.00
9373;DHT22;10838;52.350;9.790;2023-04-24T09:58:29;15.90;94.00
9373;DHT22;10838;52.350;9.790;2023-04-24T10:00:56;16.00;94.00
9373;DHT22;10838;52.350;9.790;2023-04-24T10:03:24;15.90;94.00
9373;DHT22;10838;52.350;9.790;2023-04-24T10:05:52;15.90;93.90
9373;DHT22;10838;52.350;9.790;2023-04-24T10:08:20;15.80;93.90
9373;DHT22;10838;52.350;9.790;2023-04-24T10:10:47;15.70;93.80
9373;DHT22;10838;52.350;9.790;2023-04-24T10:13:15;15.60;93.80
9373;DHT22;10838;52.350;9.790;2023-04-24T10:15:42;15.60;93.90
9373;DHT22;10838;52.350;9.790;2023-04-24T10:18:10;15.60;93.90
9373;DHT22;10838;52.350;9.790;2023-04-24T10:20:38;15.50;93.90
9373;DHT22;10838;52.350;9.790;2023-04-24T10:23:05;15.50;93.90
9373;DHT22;10838;52.350;9.790;2023-04-24T10:25:33;15.60;93.90
9373;DHT22;10838;52.350;9.790;2023-04-24T10:28:01;15.50;94.00
9373;DHT22;10838;52.350;9.790;2023-04-24T10:30:31;15.50;93.90
9373;DHT22;10838;52.350;9.790;2023-04-24T10:33:00;15.50;94.00
9373;DHT22;10838;52.350;9.790;2023-04-24T10:35:30;15.50;94.00
9373;DHT22;10838;52.350;9.790;2023-04-24T10:37:59;15.50;94.00
9373;DHT22;10838;52.350;9.790;2023-04-24T10:40:27;15.40;93.90
9373;DHT22;10838;52.350;9.790;2023-04-24T10:42:56;15.30;93.90
9373;DHT22;10838;52.350;9.790;2023-04-24T10:45:24;15.30;93.90
9373;DHT22;10838;52.350;9.790;2023-04-24T10:47:53;15.30;94.00
9373;DHT22;10838;52.350;9.790;2023-04-24T10:50:20;15.20;94.00
9373;DHT22;10838;52.350;9.790;2023-04-24T10:52:47;15.20;94.00
9373;DHT22;10838;52.350;9.790;2023-04-24T10:55:16;15.20;94.00
9373;DHT22;10838;52.350;9.790;2023-04-24T10:58:04;15.10;94.10
9373;DHT22;10838;52.350;9.790;2023-04-24T11:00:30;15.10;94.10
9373;DHT22;10838;52.350;9.790;2023-04-24T11:02:58;15.10;94.00
9373;DHT22;10838;52.350;9.790;2023-04-24T11:05:50;15.00;94.00
9373;DHT22;10838;52.350;9.790;2023-04-24T11:08:26;15.00;94.00
9373;DHT22;10838;52.350;9.790;2023-04-24T11:10:59;15.00;93.90
9373;DHT22;10838;52.350;9.790;2023-04-24T11:13:27;14.90;94.00
9373;DHT22;10838;52.350;9.790;2023-04-24T11:16:20;14.80;94.00
9373;DHT22;10838;52.350;9.790;2023-04-24T11:18:52;14.80;94.00
9373;DHT22;10838;52.350;9.790;2023-04-24T11:21:20;14.80;94.00
9373;DHT22;10838;52.350;9.790;2023-04-24T11:23:46;14.80;94.00
9373;DHT22;10838;52.350;9.790;2023-04-24T11:26:17;14.70;94.00
9373;DHT22;10838;52.350;9.790;2023-04-24T11:28:46;14.60;94.10
9373;DHT22;10838;52.350;9.790;2023-04-24T11:31:34;14.60;94.10
9373;DHT22;10838;52.350;9.790;2023-04-24T11:34:08;14.60;94.20
9373;DHT22;10838;52.350;9.790;2023-04-24T11:36:35;14.60;94.30
9373;DHT22;10838;52.350;9.790;2023-04-24T11:39:02;14.60;94.20
9373;DHT22;10838;52.350;9.790;2023-04-24T11:41:29;14.70;94.30
9373;DHT22;10838;52.350;9.790;2023-04-24T11:43:56;14.70;94.20
9373;DHT22;10838;52.350;9.790;2023-04-24T11:46:23;14.80;94.10
9373;DHT22;10838;52.350;9.790;2023-04-24T11:48:53;14.80;94.10
9373;DHT22;10838;52.350;9.790;2023-04-24T11:51:22;14.80;94.10
9373;DHT22;10838;52.350;9.790;2023-04-24T11:53:49;14.90;94.10
9373;DHT22;10838;52.350;9.790;2023-04-24T11:56:18;15.00;94.00
9373;DHT22;10838;52.350;9.790;2023-04-24T11:58:45;15.00;94.00
9373;DHT22;10838;52.350;9.790;2023-04-24T12:01:12;15.10;94.00
9373;DHT22;10838;52.350;9.790;2023-04-24T12:03:38;15.10;93.90
9373;DHT22;10838;52.350;9.790;2023-04-24T12:06:06;15.10;93.90
9373;DHT22;10838;52.350;9.790;2023-04-24T12:08:34;15.10;93.80
9373;DHT22;10838;52.350;9.790;2023-04-24T12:11:02;15.10;93.90
9373;DHT22;10838;52.350;9.790;2023-04-24T12:13:29;15.20;93.90
9373;DHT22;10838;52.350;9.790;2023-04-24T12:15:56;15.20;93.90
9373;DHT22;10838;52.350;9.790;2023-04-24T12:18:23;15.20;93.90
9373;DHT22;10838;52.350;9.790;2023-04-24T12:20:50;15.10;93.90
9373;DHT22;10838;52.350;9.790;2023-04-24T12:23:34;15.00;93.90
9373;DHT22;10838;52.350;9.790;2023-04-24T12:26:03;14.90;93.90
9373;DHT22;10838;52.350;9.790;2023-04-24T12:28:35;14.80;93.90
9373;DHT22;10838;52.350;9.790;2023-04-24T12:31:02;14.70;93.90
9373;DHT22;10838;52.350;9.790;2023-04-24T12:33:32;14.70;93.90
9373;DHT22;10838;52.350;9.790;2023-04-24T12:35:59;14.60;94.00
9373;DHT22;10838;52.350;9.790;2023-04-24T12:38:27;14.60;94.10
9373;DHT22;10838;52.350;9.790;2023-04-24T12:41:03;14.50;94.10
9373;DHT22;10838;52.350;9.790;2023-04-24T12:43:30;14.60;94.20
9373;DHT22;10838;52.350;9.790;2023-04-24T12:45:57;14.60;94.20
9373;DHT22;10838;52.350;9.790;2023-04-24T12:48:24;14.60;94.20
9373;DHT22;10838;52.350;9.790;2023-04-24T12:50:51;14.70;94.20
9373;DHT22;10838;52.350;9.790;2023-04-24T12:53:17;14.70;94.30
9373;DHT22;10838;52.350;9.790;2023-04-24T12:55:44;14.80;94.20
9373;DHT22;10838;52.350;9.790;2023-04-24T12:58:13;14.90;94.20
9373;DHT22;10838;52.350;9.790;2023-04-24T13:00:40;14.90;94.20
9373;DHT22;10838;52.350;9.790;2023-04-24T13:03:08;14.90;94.20
9373;DHT22;10838;52.350;9.790;2023-04-24T13:05:35;14.90;94.20
9373;DHT22;10838;52.350;9.790;2023-04-24T13:08:01;14.90;94.20
9373;DHT22;10838;52.350;9.790;2023-04-24T13:10:28;14.80;94.10
9373;DHT22;10838;52.350;9.790;2023-04-24T13:12:55;14.70;94.10
9373;DHT22;10838;52.350;9.790;2023-04-24T13:15:23;14.60;94.10
9373;DHT22;10838;52.350;9.790;2023-04-24T13:17:50;14.50;94.20
9373;DHT22;10838;52.350;9.790;2023-04-24T13:20:17;14.40;94.30
9373;DHT22;10838;52.350;9.790;2023-04-24T13:22:43;14.20;94.40
9373;DHT22;10838;52.350;9.790;2023-04-24T13:25:10;14.10;94.40
9373;DHT22;10838;52.350;9.790;2023-04-24T13:27:38;14.00;94.50
9373;DHT22;10838;52.350;9.790;2023-04-24T13:30:05;13.90;94.50
9373;DHT22;10838;52.350;9.790;2023-04-24T13:32:33;13.90;94.60
9373;DHT22;10838;52.350;9.790;2023-04-24T13:35:00;13.90;94.60
9373;DHT22;10838;52.350;9.790;2023-04-24T13:37:27;13.90;94.60
9373;DHT22;10838;52.350;9.790;2023-04-24T13:39:54;13.90;94.60
9373;DHT22;10838;52.350;9.790;2023-04-24T13:42:20;13.80;94.60
9373;DHT22;10838;52.350;9.790;2023-04-24T13:44:47;13.80;94.60
9373;DHT22;10838;52.350;9.790;2023-04-24T13:47:14;13.70;94.60
9373;DHT22;10838;52.350;9.790;2023-04-24T13:49:41;13.60;94.60
9373;DHT22;10838;52.350;9.790;2023-04-24T13:52:08;13.50;94.60
9373;DHT22;10838;52.350;9.790;2023-04-24T13:54:35;13.50;94.60
9373;DHT22;10838;52.350;9.790;2023-04-24T13:57:03;13.50;94.70
9373;DHT22;10838;52.350;9.790;2023-04-24T13:59:29;13.40;94.80
9373;DHT22;10838;52.350;9.790;2023-04-24T14:01:56;13.30;94.80
9373;DHT22;10838;52.350;9.790;2023-04-24T14:04:22;13.20;94.90
9373;DHT22;10838;52.350;9.790;2023-04-24T14:06:50;13.10;95.00
9373;DHT22;10838;52.350;9.790;2023-04-24T14:09:17;13.10;95.10
9373;DHT22;10838;52.350;9.790;2023-04-24T14:11:43;13.00;95.10
9373;DHT22;10838;52.350;9.790;2023-04-24T14:14:10;12.90;95.20
9373;DHT22;10838;52.350;9.790;2023-04-24T14:16:37;12.80;95.30
9373;DHT22;10838;52.350;9.790;2023-04-24T14:19:04;12.70;95.40
9373;DHT22;10838;52.350;9.790;2023-04-24T14:21:32;12.60;95.50
9373;DHT22;10838;52.350;9.790;2023-04-24T14:23:59;12.60;95.60
9373;DHT22;10838;52.350;9.790;2023-04-24T14:26:26;12.60;95.70
9373;DHT22;10838;52.350;9.790;2023-04-24T14:28:53;12.50;95.80
9373;DHT22;10838;52.350;9.790;2023-04-24T14:31:20;12.40;95.90
9373;DHT22;10838;52.350;9.790;2023-04-24T14:33:46;12.40;95.80
9373;DHT22;10838;52.350;9.790;2023-04-24T14:36:13;12.20;95.90
9373;DHT22;10838;52.350;9.790;2023-04-24T14:38:40;12.20;96.00
9373;DHT22;10838;52.350;9.790;2023-04-24T14:41:08;12.10;96.00
9373;DHT22;10838;52.350;9.790;2023-04-24T14:43:37;12.00;96.10
9373;DHT22;10838;52.350;9.790;2023-04-24T14:46:04;12.00;96.20
9373;DHT22;10838;52.350;9.790;2023-04-24T14:48:31;11.90;96.20
9373;DHT22;10838;52.350;9.790;2023-04-24T14:50:58;11.90;96.30
9373;DHT22;10838;52.350;9.790;2023-04-24T14:53:25;11.80;96.30
9373;DHT22;10838;52.350;9.790;2023-04-24T14:55:51;11.80;96.40
9373;DHT22;10838;52.350;9.790;2023-04-24T14:58:19;11.80;96.40
9373;DHT22;10838;52.350;9.790;2023-04-24T15:00:46;11.80;96.50
9373;DHT22;10838;52.350;9.790;2023-04-24T15:03:15;11.80;96.50
9373;DHT22;10838;52.350;9.790;2023-04-24T15:05:42;11.80;96.60
9373;DHT22;10838;52.350;9.790;2023-04-24T15:08:09;11.80;96.60
9373;DHT22;10838;52.350;9.790;2023-04-24T15:10:35;11.80;96.70
9373;DHT22;10838;52.350;9.790;2023-04-24T15:13:02;11.80;96.70
9373;DHT22;10838;52.350;9.790;2023-04-24T15:15:30;11.80;96.60
9373;DHT22;10838;52.350;9.790;2023-04-24T15:17:56;11.70;96.60
9373;DHT22;10838;52.350;9.790;2023-04-24T15:20:23;11.70;96.60
9373;DHT22;10838;52.350;9.790;2023-04-24T15:22:50;11.60;96.70
9373;DHT22;10838;52.350;9.790;2023-04-24T15:25:16;11.60;96.70
9373;DHT22;10838;52.350;9.790;2023-04-24T15:27:44;11.50;96.70
9373;DHT22;10838;52.350;9.790;2023-04-24T15:30:12;11.50;96.70
9373;DHT22;10838;52.350;9.790;2023-04-24T15:32:40;11.50;96.80
9373;DHT22;10838;52.350;9.790;2023-04-24T15:35:08;11.50;96.80
9373;DHT22;10838;52.350;9.790;2023-04-24T15:37:34;11.50;96.80
9373;DHT22;10838;52.350;9.790;2023-04-24T15:40:01;11.50;96.80
9373;DHT22;10838;52.350;9.790;2023-04-24T15:42:29;11.50;96.90
9373;DHT22;10838;52.350;9.790;2023-04-24T15:44:56;11.50;96.90
9373;DHT22;10838;52.350;9.790;2023-04-24T15:47:22;11.50;97.00